Time;durP1;ratioP1;P1;durP2;ratioP2;P2;SDS_P1;SDS_P2;PMS_P1;PMS_P2;Temp;Humidity;BMP_temperature;BMP_pressure;BME280_temperature;BME280_humidity;BME280_pressure;Samples;Min_cycle;Max_cycle;Signal;HPM_P1;HPM_P2
2022/10/26 00:00:51;;;;;;;24.77;18.38;;;;;;;10.17;100.00;101526.94;5053866;28;20635;-44
2022/10/26 00:03:17;;;;;;;26.50;18.52;;;;;;;10.14;100.00;101521.66;5043613;28;20196;-44
2022/10/26 00:05:43;;;;;;;20.95;16.85;;;;;;;10.21;100.00;101528.63;5049351;28;20215;-43
2022/10/26 00:08:10;;;;;;;29.20;19.33;;;;;;;10.17;100.00;101515.38;5053683;28;20535;-47
2022/10/26 00:10:38;;;;;;;23.10;16.70;;;;;;;10.24;100.00;101522.31;5053757;28;20180;-44
2022/10/26 00:13:07;;;;;;;32.20;18.95;;;;;;;10.18;100.00;101522.47;5046363;28;20172;-44
2022/10/26 00:15:33;;;;;;;24.98;17.83;;;;;;;10.19;100.00;101524.19;5033399;28;20184;-46
2022/10/26 00:17:58;;;;;;;24.98;19.50;;;;;;;10.18;100.00;101523.34;5033517;28;20171;-43
2022/10/26 00:20:24;;;;;;;23.67;17.52;;;;;;;10.16;100.00;101521.63;5020707;28;20240;-44
2022/10/26 00:22:49;;;;;;;27.70;18.35;;;;;;;10.12;100.00;101526.16;5034134;28;20697;-45
2022/10/26 00:25:15;;;;;;;23.67;18.20;;;;;;;10.07;100.00;101520.06;5033714;28;20253;-44
2022/10/26 00:27:40;;;;;;;24.67;18.08;;;;;;;10.08;100.00;101521.81;5035418;28;20271;-44
2022/10/26 00:30:06;;;;;;;27.10;19.27;;;;;;;10.03;100.00;101527.25;5042548;28;20541;-43
2022/10/26 00:32:33;;;;;;;22.67;17.70;;;;;;;9.92;100.00;101525.78;5039381;28;20183;-43
2022/10/26 00:34:58;;;;;;;24.08;18.65;;;;;;;9.89;100.00;101516.91;5033298;28;20184;-45
2022/10/26 00:37:24;;;;;;;26.67;18.88;;;;;;;9.87;100.00;101524.09;5051126;28;20648;-44
2022/10/26 00:39:49;;;;;;;29.17;19.85;;;;;;;9.85;100.00;101523.25;5043308;28;20230;-44
2022/10/26 00:42:20;;;;;;;22.67;17.70;;;;;;;9.83;100.00;101527.75;5052969;28;20227;-44
2022/10/26 00:44:45;;;;;;;26.35;18.88;;;;;;;9.80;100.00;101525.16;5042835;28;20743;-45
2022/10/26 00:47:17;;;;;;;29.00;18.67;;;;;;;9.81;100.00;101526.91;5036991;28;20180;-44
2022/10/26 00:49:46;;;;;;;21.40;17.05;;;;;;;9.90;100.00;101534.75;5045785;28;20198;-46
2022/10/26 00:52:13;;;;;;;23.95;18.05;;;;;;;9.84;100.00;101534.88;5052610;28;20227;-44
2022/10/26 00:54:39;;;;;;;24.63;18.80;;;;;;;9.75;100.00;101528.84;5039940;28;20385;-44
2022/10/26 00:57:05;;;;;;;30.85;19.30;;;;;;;9.77;100.00;101533.25;5031463;28;20255;-44
2022/10/26 00:59:31;;;;;;;29.30;18.88;;;;;;;9.82;100.00;101531.38;5048316;28;20211;-44
2022/10/26 01:01:57;;;;;;;26.92;19.90;;;;;;;9.80;100.00;101532.31;5044981;28;20250;-46
2022/10/26 01:04:23;;;;;;;24.95;18.85;;;;;;;9.76;100.00;101536.00;5034151;28;20204;-47
2022/10/26 01:06:49;;;;;;;27.40;19.85;;;;;;;9.67;100.00;101531.72;5034566;28;20228;-45
2022/10/26 01:09:17;;;;;;;29.33;18.95;;;;;;;9.72;100.00;101535.16;5022044;28;20172;-44
2022/10/26 01:11:43;;;;;;;22.33;17.38;;;;;;;9.73;100.00;101531.59;5042431;28;20654;-44
2022/10/26 01:14:10;;;;;;;32.78;19.05;;;;;;;9.67;100.00;101542.44;5052515;28;20186;-45
2022/10/26 01:17:00;;;;;;;25.85;19.48;;;;;;;9.67;100.00;101537.94;5040594;28;20194;-43
2022/10/26 01:19:52;;;;;;;27.23;18.13;;;;;;;9.64;100.00;101531.78;5038334;28;20203;-45
2022/10/26 01:23:00;;;;;;;27.25;19.85;;;;;;;9.67;100.00;101537.09;5034990;28;20234;-44
2022/10/26 01:26:00;;;;;;;26.75;19.70;;;;;;;9.67;100.00;101537.09;4978641;28;20213;-44
2022/10/26 01:29:04;;;;;;;32.47;19.95;;;;;;;9.72;100.00;101535.16;5032330;28;20183;-43
2022/10/26 01:31:39;;;;;;;31.80;21.30;;;;;;;9.67;100.00;101531.72;4926067;29;20182;-44
2022/10/26 01:34:16;;;;;;;36.13;21.08;;;;;;;9.65;100.00;101518.38;4951462;29;20233;-45
2022/10/26 01:36:55;;;;;;;30.27;20.33;;;;;;;9.63;100.00;101525.56;4996628;28;20535;-44
2022/10/26 01:39:35;;;;;;;27.55;19.38;;;;;;;9.66;100.00;101514.81;5046814;28;20233;-44
2022/10/26 01:42:04;;;;;;;34.45;20.88;;;;;;;9.60;100.00;101520.28;5037860;28;20263;-44
2022/10/26 01:44:41;;;;;;;29.63;21.05;;;;;;;9.59;100.00;101523.88;5040673;28;20577;-44
2022/10/26 01:47:10;;;;;;;29.60;19.88;;;;;;;9.62;100.00;101522.91;5042891;28;20175;-45
2022/10/26 01:49:40;;;;;;;30.98;20.58;;;;;;;9.65;100.00;101528.22;5051885;28;20164;-44
2022/10/26 01:52:09;;;;;;;34.70;21.23;;;;;;;9.59;100.00;101531.00;5031956;28;20268;-45
2022/10/26 01:54:35;;;;;;;29.17;20.33;;;;;;;9.62;100.00;101520.22;5051392;28;20619;-43
2022/10/26 01:57:04;;;;;;;32.88;21.30;;;;;;;9.59;100.00;101528.34;5049706;28;20244;-44
2022/10/26 01:59:51;;;;;;;32.28;19.80;;;;;;;9.57;100.00;101525.69;5051382;28;20183;-44
2022/10/26 02:02:41;;;;;;;26.15;18.65;;;;;;;9.58;100.00;101529.28;5030464;28;20167;-45
2022/10/26 02:05:28;;;;;;;36.95;22.65;;;;;;;9.57;100.00;101524.81;5038962;28;20264;-44
2022/10/26 02:07:56;;;;;;;43.05;21.40;;;;;;;9.53;100.00;101531.16;5049886;28;20183;-44
2022/10/26 02:10:34;;;;;;;30.55;21.02;;;;;;;9.55;100.00;101529.31;5046468;28;20184;-42
2022/10/26 02:13:20;;;;;;;39.60;21.70;;;;;;;9.53;100.00;101532.03;5031392;28;20184;-44
2022/10/26 02:16:01;;;;;;;37.03;22.52;;;;;;;9.51;100.00;101516.94;5035023;28;20195;-45
2022/10/26 02:18:36;;;;;;;29.05;20.25;;;;;;;9.48;100.00;101521.44;5039977;28;20206;-47
2022/10/26 02:21:11;;;;;;;42.60;22.77;;;;;;;9.47;100.00;101518.81;5018954;28;20195;-46
2022/10/26 02:23:41;;;;;;;31.73;20.92;;;;;;;9.51;100.00;101517.84;5034575;28;20230;-46
2022/10/26 02:26:09;;;;;;;29.15;20.75;;;;;;;9.55;100.00;101519.50;5036763;28;20533;-46
2022/10/26 02:28:42;;;;;;;35.67;22.92;;;;;;;9.54;100.00;101508.84;5038289;28;20180;-46
2022/10/26 02:31:08;;;;;;;29.08;21.65;;;;;;;9.54;100.00;101506.19;5038350;28;20196;-46
2022/10/26 02:33:39;;;;;;;33.47;22.08;;;;;;;9.44;100.00;101519.72;5034894;28;20603;-46
2022/10/26 02:36:09;;;;;;;34.75;22.65;;;;;;;9.47;100.00;101506.31;5035626;28;20234;-46
2022/10/26 02:38:37;;;;;;;33.70;21.67;;;;;;;9.42;100.00;101505.53;5037427;28;20225;-46
2022/10/26 02:41:03;;;;;;;31.65;21.88;;;;;;;9.45;100.00;101512.63;5034752;28;20648;-47
2022/10/26 02:43:35;;;;;;;36.55;22.90;;;;;;;9.36;100.00;101505.69;5039200;28;20712;-44
2022/10/26 02:46:08;;;;;;;36.50;22.90;;;;;;;9.44;100.00;101505.50;5037755;28;20167;-46
2022/10/26 02:48:34;;;;;;;35.70;21.73;;;;;;;9.37;100.00;101504.75;5037590;28;20212;-46
2022/10/26 02:51:31;;;;;;;37.25;22.30;;;;;;;9.35;100.00;101503.91;5035722;28;20681;-47
2022/10/26 02:54:08;;;;;;;37.92;23.05;;;;;;;9.27;100.00;101497.84;5033728;28;20214;-46
2022/10/26 02:57:01;;;;;;;32.42;22.25;;;;;;;9.26;100.00;101504.97;5038483;28;20266;-50
2022/10/26 02:59:31;;;;;;;28.00;18.17;;;;;;;9.27;100.00;101509.44;5037961;28;20184;-47
2022/10/26 03:01:57;;;;;;;28.10;19.85;;;;;;;9.07;100.00;101506.28;5034842;28;20205;-47
2022/10/26 03:04:30;;;;;;;23.80;18.73;;;;;;;8.90;100.00;101505.75;5036299;28;20305;-47
2022/10/26 03:06:55;;;;;;;26.08;18.85;;;;;;;9.00;100.00;101499.31;5037009;28;20255;-46
2022/10/26 03:09:21;;;;;;;22.27;16.08;;;;;;;9.00;100.00;101491.31;5039061;28;20262;-46
2022/10/26 03:11:46;;;;;;;27.63;17.83;;;;;;;8.77;100.00;101478.44;5037863;28;20222;-50
2022/10/26 03:14:12;;;;;;;23.60;18.38;;;;;;;8.69;100.00;101491.94;5035938;28;20223;-46
2022/10/26 03:16:37;;;;;;;23.38;16.63;;;;;;;8.48;100.00;101493.22;5036466;28;20195;-46
2022/10/26 03:19:02;;;;;;;20.85;16.95;;;;;;;8.47;100.00;101485.25;5035358;28;20215;-48
2022/10/26 03:21:28;;;;;;;17.38;14.30;;;;;;;8.61;100.00;101493.88;5037545;28;20206;-46
2022/10/26 03:23:54;;;;;;;19.88;14.63;;;;;;;8.59;100.00;101485.91;5033888;28;20235;-47
2022/10/26 03:26:19;;;;;;;23.10;15.50;;;;;;;8.51;100.00;101487.84;5037786;28;20182;-46
2022/10/26 03:28:45;;;;;;;21.10;15.05;;;;;;;8.56;100.00;101493.97;5036906;28;20297;-51
2022/10/26 03:31:11;;;;;;;24.90;16.38;;;;;;;8.42;100.00;101480.00;5036237;28;20211;-45
2022/10/26 03:33:36;;;;;;;25.52;16.42;;;;;;;8.36;100.00;101486.28;5036090;28;20534;-46
2022/10/26 03:36:02;;;;;;;24.92;16.98;;;;;;;8.33;100.00;101483.69;5035743;28;20202;-48
2022/10/26 03:38:27;;;;;;;24.05;17.77;;;;;;;8.28;100.00;101503.34;5039011;28;20714;-46
2022/10/26 03:40:52;;;;;;;21.10;15.52;;;;;;;8.22;100.00;101485.66;5037680;28;20298;-46
2022/10/26 03:43:18;;;;;;;22.20;15.77;;;;;;;8.22;100.00;101489.22;5036721;28;20286;-50
2022/10/26 03:45:43;;;;;;;21.60;16.63;;;;;;;8.14;100.00;101496.47;5036672;28;20199;-49
2022/10/26 03:48:09;;;;;;;23.90;18.02;;;;;;;8.21;100.00;101497.25;5035662;28;20179;-46
2022/10/26 03:50:34;;;;;;;24.88;17.38;;;;;;;8.16;100.00;101502.69;5038245;28;20254;-46
2022/10/26 03:53:00;;;;;;;25.48;17.17;;;;;;;8.27;100.00;101499.81;5036800;28;20245;-50
2022/10/26 03:55:25;;;;;;;20.70;16.50;;;;;;;8.13;100.00;101500.03;5038264;28;20203;-44
2022/10/26 03:57:51;;;;;;;23.10;17.00;;;;;;;7.97;100.00;101485.22;5037923;28;20271;-46
2022/10/26 04:00:17;;;;;;;22.13;15.55;;;;;;;8.06;100.00;101493.06;5036598;28;20188;-48
2022/10/26 04:02:47;;;;;;;23.15;16.23;;;;;;;8.15;100.00;101486.69;5036924;28;20626;-48
2022/10/26 04:05:15;;;;;;;24.63;17.00;;;;;;;8.05;100.00;101484.19;5025058;28;20238;-48
2022/10/26 04:07:41;;;;;;;24.77;18.42;;;;;;;8.04;100.00;101492.19;5037070;28;20619;-50
2022/10/26 04:10:07;;;;;;;21.42;17.13;;;;;;;7.98;100.00;101486.97;5037740;28;20263;-43
2022/10/26 04:12:35;;;;;;;29.50;19.75;;;;;;;8.13;100.00;101499.16;5037208;28;20191;-42
2022/10/26 04:15:01;;;;;;;28.65;20.58;;;;;;;8.24;100.00;101498.09;5037187;28;20578;-43
2022/10/26 04:17:27;;;;;;;28.02;16.90;;;;;;;8.00;100.00;101490.47;5036760;28;20179;-44
2022/10/26 04:19:52;;;;;;;28.30;18.20;;;;;;;8.03;100.00;101490.44;5034507;28;20191;-43
2022/10/26 04:22:18;;;;;;;28.00;17.17;;;;;;;7.79;100.00;101487.28;5037852;28;20241;-44
2022/10/26 04:24:43;;;;;;;27.85;19.33;;;;;;;7.83;100.00;101490.78;5036225;28;20251;-43
2022/10/26 04:27:08;;;;;;;28.45;16.23;;;;;;;7.78;100.00;101501.53;5037791;28;20519;-44
2022/10/26 04:29:34;;;;;;;25.55;17.05;;;;;;;7.79;100.00;101491.75;5038169;28;20178;-43
2022/10/26 04:32:00;;;;;;;23.10;16.65;;;;;;;7.72;100.00;101501.63;5038802;28;20195;-45
2022/10/26 04:34:25;;;;;;;25.58;17.38;;;;;;;7.80;100.00;101502.34;5039345;28;20278;-43
2022/10/26 04:36:51;;;;;;;21.38;16.73;;;;;;;7.85;100.00;101499.66;5039635;28;20262;-43
2022/10/26 04:39:16;;;;;;;30.35;18.88;;;;;;;7.84;100.00;101506.75;5039035;28;20186;-44
2022/10/26 04:41:41;;;;;;;42.70;22.90;;;;;;;8.11;100.00;101504.56;5038077;28;20176;-45
2022/10/26 04:44:07;;;;;;;33.53;22.75;;;;;;;8.22;100.00;101515.00;5041322;28;20243;-44
2022/10/26 04:46:32;;;;;;;33.15;22.70;;;;;;;8.27;100.00;101520.31;5042002;28;20179;-43
2022/10/26 04:48:58;;;;;;;34.33;22.27;;;;;;;8.29;100.00;101513.13;5037678;28;20186;-48
2022/10/26 04:51:23;;;;;;;35.92;23.02;;;;;;;8.32;100.00;101523.75;5044520;28;20450;-44
2022/10/26 04:53:48;;;;;;;40.95;25.25;;;;;;;8.40;100.00;101527.19;5040522;28;20206;-47
2022/10/26 04:56:14;;;;;;;35.00;23.60;;;;;;;8.43;100.00;101513.78;5041225;28;20195;-43
2022/10/26 04:58:39;;;;;;;36.58;24.33;;;;;;;8.41;100.00;101518.28;5043363;28;20175;-45
2022/10/26 05:01:05;;;;;;;37.75;24.60;;;;;;;8.43;100.00;101520.00;5043453;28;20272;-47
2022/10/26 05:03:30;;;;;;;44.10;24.83;;;;;;;8.43;100.00;101512.00;5038849;28;20554;-46
2022/10/26 05:05:58;;;;;;;43.83;26.58;;;;;;;8.51;100.00;101511.88;5044839;28;20302;-45
2022/10/26 05:08:25;;;;;;;39.72;23.92;;;;;;;8.51;100.00;101524.34;5037853;28;20187;-45
2022/10/26 05:10:51;;;;;;;40.80;25.35;;;;;;;8.48;100.00;101511.03;5039330;28;20175;-47
2022/10/26 05:13:16;;;;;;;43.33;25.25;;;;;;;8.48;100.00;101516.38;5039162;28;20673;-44
2022/10/26 05:15:42;;;;;;;45.20;25.45;;;;;;;8.47;100.00;101527.97;5043444;28;20207;-45
2022/10/26 05:18:08;;;;;;;46.17;26.45;;;;;;;8.48;100.00;101519.91;5037776;28;20195;-47
2022/10/26 05:20:34;;;;;;;43.75;24.48;;;;;;;8.42;100.00;101522.72;5044021;28;20553;-48
2022/10/26 05:23:02;;;;;;;45.38;26.20;;;;;;;8.44;100.00;101521.78;5043953;28;20204;-45
2022/10/26 05:25:30;;;;;;;39.33;25.60;;;;;;;8.47;100.00;101520.84;5038389;28;20260;-47
2022/10/26 05:28:04;;;;;;;44.55;26.00;;;;;;;8.44;100.00;101523.59;5012304;28;20240;-48
2022/10/26 05:30:30;;;;;;;41.50;25.60;;;;;;;8.46;100.00;101524.41;5038991;28;20179;-47
2022/10/26 05:32:57;;;;;;;42.25;26.73;;;;;;;8.43;100.00;101533.34;5039264;28;20549;-48
2022/10/26 05:35:24;;;;;;;39.08;25.13;;;;;;;8.44;100.00;101521.78;5041147;28;20298;-48
2022/10/26 05:37:50;;;;;;;47.83;26.25;;;;;;;8.41;100.00;101520.94;5040885;28;20258;-48
2022/10/26 05:40:16;;;;;;;40.92;25.23;;;;;;;8.41;100.00;101528.97;5037682;28;20179;-49
2022/10/26 05:42:43;;;;;;;42.65;25.48;;;;;;;8.40;100.00;101525.41;5038138;28;20200;-47
2022/10/26 05:45:09;;;;;;;39.47;24.65;;;;;;;8.36;100.00;101529.00;5038557;28;20219;-47
2022/10/26 05:47:39;;;;;;;39.40;24.67;;;;;;;8.36;100.00;101537.03;5041120;28;20186;-48
2022/10/26 05:50:04;;;;;;;42.97;25.00;;;;;;;8.37;100.00;101538.78;5039070;28;20216;-47
2022/10/26 05:52:36;;;;;;;40.45;23.13;;;;;;;8.43;100.00;101540.50;5037110;28;20993;-48
2022/10/26 05:55:02;;;;;;;43.67;24.88;;;;;;;8.43;100.00;101535.16;5022243;28;20202;-49
2022/10/26 05:57:28;;;;;;;40.10;24.27;;;;;;;8.37;100.00;101537.91;5038927;28;20188;-49
2022/10/26 05:59:53;;;;;;;42.53;25.02;;;;;;;8.34;100.00;101536.16;5040255;28;20191;-47
2022/10/26 06:02:38;;;;;;;42.17;23.27;;;;;;;8.31;100.00;101538.00;5039945;28;20722;-51
2022/10/26 06:05:04;;;;;;;38.45;24.38;;;;;;;8.28;100.00;101554.97;5039196;28;20228;-48
2022/10/26 06:07:30;;;;;;;34.30;22.95;;;;;;;8.28;100.00;101546.94;5038556;28;20590;-48
2022/10/26 06:09:56;;;;;;;31.75;21.30;;;;;;;8.28;100.00;101540.75;5022650;28;20261;-50
2022/10/26 06:12:24;;;;;;;31.77;20.55;;;;;;;8.20;100.00;101554.22;5039064;28;20293;-48
2022/10/26 06:14:50;;;;;;;32.90;22.77;;;;;;;7.86;100.00;101556.53;5022321;28;20200;-46
2022/10/26 06:17:34;;;;;;;36.17;22.30;;;;;;;7.74;100.00;101552.25;5038838;28;20206;-49
2022/10/26 06:20:07;;;;;;;29.35;20.35;;;;;;;7.75;100.00;101551.38;5038433;28;20215;-51
2022/10/26 06:22:41;;;;;;;27.85;20.55;;;;;;;7.80;100.00;101553.03;5036167;28;20852;-47
2022/10/26 06:25:18;;;;;;;29.63;20.75;;;;;;;7.75;100.00;101544.25;5036326;28;20244;-47
2022/10/26 06:28:08;;;;;;;23.85;17.92;;;;;;;7.80;100.00;101557.50;5041718;28;20184;-47
2022/10/26 06:30:33;;;;;;;25.77;18.08;;;;;;;7.82;100.00;101556.56;5026526;28;20349;-46
2022/10/26 06:33:00;;;;;;;26.55;18.00;;;;;;;7.77;100.00;101561.09;5042469;28;20258;-49
2022/10/26 06:35:42;;;;;;;30.95;20.42;;;;;;;7.71;100.00;101561.19;5043787;28;20226;-48
2022/10/26 06:38:19;;;;;;;36.20;20.38;;;;;;;7.57;100.00;101563.19;5039645;28;20191;-46
2022/10/26 06:40:49;;;;;;;30.30;18.25;;;;;;;7.70;100.00;101562.13;5040519;28;20175;-44
2022/10/26 06:43:31;;;;;;;27.35;19.13;;;;;;;7.69;100.00;101564.78;5040171;28;20658;-44
2022/10/26 06:46:26;;;;;;;22.98;17.00;;;;;;;7.75;100.00;101554.91;5039612;28;20180;-44
2022/10/26 06:49:27;;;;;;;26.08;19.10;;;;;;;7.74;100.00;101569.16;5037341;28;20182;-43
2022/10/26 06:51:58;;;;;;;30.98;20.88;;;;;;;7.84;100.00;101565.44;5036556;28;20599;-44
2022/10/26 06:54:48;;;;;;;31.38;21.67;;;;;;;7.98;100.00;101570.59;5038193;28;20309;-44
2022/10/26 06:57:15;;;;;;;26.85;18.65;;;;;;;8.09;100.00;101570.41;5039335;28;20615;-44
2022/10/26 07:00:01;;;;;;;26.50;19.33;;;;;;;8.06;100.00;101567.78;5034642;28;20313;-42
2022/10/26 07:02:27;;;;;;;30.17;18.65;;;;;;;8.05;100.00;101574.91;5037075;28;20643;-45
2022/10/26 07:04:52;;;;;;;31.50;20.17;;;;;;;8.08;100.00;101570.44;5019363;28;20242;-44
2022/10/26 07:07:20;;;;;;;33.85;21.50;;;;;;;8.20;100.00;101576.47;5036897;28;20179;-46
2022/10/26 07:09:46;;;;;;;35.97;20.15;;;;;;;8.21;100.00;101575.53;5028587;28;20198;-44
2022/10/26 07:12:11;;;;;;;41.45;22.42;;;;;;;8.26;100.00;101575.47;5039595;28;20643;-44
2022/10/26 07:14:37;;;;;;;37.42;22.27;;;;;;;8.45;100.00;101571.59;5036957;28;20199;-45
2022/10/26 07:17:04;;;;;;;36.63;23.77;;;;;;;8.59;100.00;101576.72;5041251;28;20195;-47
2022/10/26 07:19:29;;;;;;;33.15;22.73;;;;;;;8.68;100.00;101569.44;5040463;28;20199;-44
2022/10/26 07:21:58;;;;;;;32.92;23.30;;;;;;;8.72;100.00;101568.47;5035225;28;20547;-46
2022/10/26 07:24:23;;;;;;;34.60;22.38;;;;;;;8.76;100.00;101575.50;5038516;28;20678;-44
2022/10/26 07:26:49;;;;;;;34.60;22.38;;;;;;;8.85;100.00;101578.91;5036685;28;20175;-46
2022/10/26 07:29:16;;;;;;;36.13;23.50;;;;;;;8.90;100.00;101572.56;5026865;28;20187;-51
2022/10/26 07:31:42;;;;;;;33.60;24.25;;;;;;;8.97;100.00;101580.44;5021364;28;20192;-45
2022/10/26 07:34:08;;;;;;;35.75;24.30;;;;;;;9.02;100.00;101570.53;5038326;28;20210;-44
2022/10/26 07:36:35;;;;;;;41.28;23.92;;;;;;;9.06;100.00;101566.03;5038391;28;20191;-45
2022/10/26 07:39:02;;;;;;;40.55;23.83;;;;;;;9.11;100.00;101574.81;5037844;28;20657;-47
2022/10/26 07:41:27;;;;;;;32.05;23.65;;;;;;;9.20;100.00;101579.97;5041513;28;20592;-45
2022/10/26 07:43:53;;;;;;;31.42;23.08;;;;;;;9.28;100.00;101570.00;5034834;28;20288;-47
2022/10/26 07:46:18;;;;;;;35.63;23.45;;;;;;;9.35;100.00;101578.78;5034066;28;20653;-45
2022/10/26 07:48:44;;;;;;;31.50;22.48;;;;;;;9.36;100.00;101580.56;5038768;28;20172;-45
2022/10/26 07:51:09;;;;;;;32.13;24.73;;;;;;;9.44;100.00;101570.56;5037757;28;20188;-47
2022/10/26 07:53:35;;;;;;;34.35;23.90;;;;;;;9.47;100.00;101580.34;5042355;28;20172;-44
2022/10/26 07:56:00;;;;;;;34.90;22.13;;;;;;;9.49;100.00;101584.72;5043049;28;20199;-43
2022/10/26 07:58:27;;;;;;;38.90;23.50;;;;;;;9.55;100.00;101581.03;5047712;28;20566;-46
2022/10/26 08:00:53;;;;;;;37.08;22.15;;;;;;;9.60;100.00;101578.25;5024227;28;20211;-45
2022/10/26 08:03:19;;;;;;;35.67;21.65;;;;;;;9.58;100.00;101582.78;5031623;28;20191;-45
2022/10/26 08:05:55;;;;;;;33.30;22.05;;;;;;;9.63;100.00;101591.56;5038659;28;20225;-45
2022/10/26 08:08:20;;;;;;;29.50;21.73;;;;;;;9.87;100.00;101584.78;5029991;28;20164;-45
2022/10/26 08:10:46;;;;;;;30.60;20.83;;;;;;;10.02;100.00;101588.91;4996079;28;20171;-45
2022/10/26 08:13:13;;;;;;;27.10;20.80;;;;;;;10.15;100.00;101593.03;5030161;28;20172;-47
2022/10/26 08:15:39;;;;;;;30.25;20.67;;;;;;;10.30;100.00;101595.38;5033307;28;20212;-46
2022/10/26 08:18:05;;;;;;;28.95;20.38;;;;;;;10.47;100.00;101588.69;5038844;28;20327;-47
2022/10/26 08:20:31;;;;;;;27.95;20.52;;;;;;;10.57;100.00;101600.09;5038011;28;20206;-49
2022/10/26 08:22:57;;;;;;;24.98;19.00;;;;;;;10.63;100.00;101586.53;5037342;28;20210;-49
2022/10/26 08:25:23;;;;;;;24.60;18.85;;;;;;;10.77;100.00;101583.47;5023921;28;20275;-46
2022/10/26 08:27:49;;;;;;;26.42;18.33;;;;;;;11.17;100.00;101577.00;5038745;28;20175;-49
2022/10/26 08:30:14;;;;;;;27.10;19.23;;;;;;;11.34;100.00;101563.97;5038552;28;20647;-44
2022/10/26 08:32:41;;;;;;;20.27;17.70;;;;;;;11.37;100.00;101563.00;5038060;28;20207;-43
2022/10/26 08:35:07;;;;;;;22.73;17.58;;;;;;;11.42;100.00;101569.13;5039602;28;20227;-43
2022/10/26 08:37:33;;;;;;;28.17;17.92;;;;;;;11.45;100.00;101564.53;5038719;28;20537;-43
2022/10/26 08:39:59;;;;;;;24.85;17.58;;;;;;;11.53;100.00;101553.56;5040888;28;20171;-42
2022/10/26 08:42:34;;;;;;;23.77;16.73;;;;;;;11.67;100.00;101554.00;5025022;28;20278;-43
2022/10/26 08:45:11;;;;;;;23.83;17.30;;;;;;;11.81;100.00;101547.34;5040155;28;20211;-44
2022/10/26 08:47:45;;;;;;;23.10;15.82;;;;;;;11.92;100.00;101538.03;5040037;28;20190;-44
2022/10/26 08:50:39;;;;;;;19.98;15.68;;;;;;;11.90;100.00;101552.44;5041856;28;20171;-43
2022/10/26 08:53:16;;;;;;;20.35;15.25;;;;;;;11.90;100.00;101533.66;5036072;28;20520;-43
2022/10/26 08:55:54;;;;;;;23.75;15.73;;;;;;;11.91;100.00;101538.94;5038873;28;20289;-43
2022/10/26 08:58:25;;;;;;;22.33;15.80;;;;;;;11.92;100.00;101527.31;5038676;28;20192;-44
2022/10/26 09:00:52;;;;;;;16.80;14.90;;;;;;;12.26;100.00;101520.78;5041079;28;20184;-44
2022/10/26 09:03:18;;;;;;;18.08;13.88;;;;;;;12.23;100.00;101520.91;5037938;28;20199;-43
2022/10/26 09:06:02;;;;;;;15.75;13.55;;;;;;;12.27;100.00;101522.56;5025252;28;20254;-44
2022/10/26 09:08:49;;;;;;;17.08;13.68;;;;;;;12.48;100.00;101528.09;5040309;28;20274;-45
2022/10/26 09:11:23;;;;;;;16.42;12.23;;;;;;;12.70;100.00;101520.16;5038454;28;20660;-47
2022/10/26 09:13:48;;;;;;;15.63;12.23;;;;;;;12.88;100.00;101513.22;5035803;28;20196;-48
2022/10/26 09:16:55;;;;;;;15.93;12.02;;;;;;;13.00;100.00;101518.16;5025201;28;20183;-46
2022/10/26 09:19:30;;;;;;;20.92;12.18;;;;;;;12.74;100.00;101519.13;4969834;28;20193;-46
2022/10/26 09:22:36;;;;;;;18.10;11.07;;;;;;;12.82;100.00;101506.28;5029089;28;20221;-48
2022/10/26 09:25:15;;;;;;;17.95;10.57;;;;;;;12.78;100.00;101508.19;5035463;28;20220;-47
2022/10/26 09:27:46;;;;;;;19.85;11.20;;;;;;;12.98;100.00;101498.50;5037569;28;20167;-47
2022/10/26 09:30:17;;;;;;;16.77;10.57;;;;;;;13.17;100.00;101504.94;5037315;28;20278;-48
2022/10/26 09:32:49;;;;;;;15.77;11.13;;;;;;;13.34;100.00;101501.66;5040247;28;20606;-47
2022/10/26 09:35:17;;;;;;;17.60;10.50;;;;;;;13.45;100.00;101493.16;5039234;28;20586;-48
2022/10/26 09:37:49;;;;;;;14.80;10.35;;;;;;;13.20;100.00;101494.06;5038423;28;20670;-49
2022/10/26 09:40:17;;;;;;;15.27;9.75;;;;;;;13.18;100.00;101500.44;5038063;28;20246;-45
2022/10/26 09:42:50;;;;;;;14.77;10.02;;;;;;;13.14;100.00;101493.41;5035285;28;20670;-49
2022/10/26 09:45:37;;;;;;;14.10;10.55;;;;;;;12.94;100.00;101489.69;5038641;28;20210;-44
2022/10/26 09:48:29;;;;;;;16.45;9.95;;;;;;;12.84;100.00;101490.97;5051524;28;20162;-45
2022/10/26 09:50:56;;;;;;;18.48;10.88;;;;;;;12.75;100.00;101481.44;5026896;28;20200;-46
2022/10/26 09:53:22;;;;;;;18.02;11.38;;;;;;;12.96;100.00;101490.50;5049940;28;20227;-45
2022/10/26 09:55:59;;;;;;;16.55;11.60;;;;;;;13.13;100.00;101492.56;5044837;28;20262;-47
2022/10/26 09:58:29;;;;;;;19.63;11.40;;;;;;;13.23;100.00;101493.09;5034518;28;20669;-45
2022/10/26 10:00:55;;;;;;;13.63;10.68;;;;;;;13.63;100.00;101487.97;5044906;28;20218;-45
2022/10/26 10:03:26;;;;;;;13.25;10.35;;;;;;;13.90;100.00;101494.91;5037939;28;20199;-44
2022/10/26 10:05:53;;;;;;;12.20;8.65;;;;;;;14.08;100.00;101492.38;5027525;28;20737;-45
2022/10/26 10:08:23;;;;;;;13.85;8.45;;;;;;;14.15;100.00;101488.50;5031411;28;20199;-44
2022/10/26 10:11:04;;;;;;;13.63;9.35;;;;;;;14.41;100.00;101482.00;5039224;28;20254;-45
2022/10/26 10:13:32;;;;;;;13.20;8.40;;;;;;;14.41;100.00;101484.69;5034177;28;20264;-44
2022/10/26 10:16:21;;;;;;;10.93;8.13;;;;;;;14.64;100.00;101491.78;5039597;28;20238;-44
2022/10/26 10:18:55;;;;;;;13.20;9.05;;;;;;;14.65;100.00;101485.47;5036808;28;20229;-44
2022/10/26 10:21:35;;;;;;;13.38;8.18;;;;;;;14.78;100.00;101478.56;5051082;28;20175;-42
2022/10/26 10:24:01;;;;;;;11.48;6.97;;;;;;;14.86;100.00;101474.63;5032783;28;20605;-43
2022/10/26 10:26:27;;;;;;;10.68;7.03;;;;;;;15.08;100.00;101479.91;5032616;28;20183;-45
2022/10/26 10:28:58;;;;;;;10.10;6.13;;;;;;;15.15;100.00;101479.56;5051201;28;20669;-45
2022/10/26 10:31:28;;;;;;;9.27;5.57;;;;;;;14.81;100.00;101467.63;5050974;28;20195;-44
2022/10/26 10:33:54;;;;;;;8.82;5.32;;;;;;;15.03;100.00;101472.91;5041363;28;20215;-45
2022/10/26 10:36:22;;;;;;;11.73;5.65;;;;;;;14.97;99.23;101472.31;5030684;28;20164;-44
2022/10/26 10:38:50;;;;;;;8.27;5.10;;;;;;;15.06;99.58;101469.16;5032410;28;20635;-44
2022/10/26 10:41:19;;;;;;;11.52;6.43;;;;;;;14.95;99.11;101475.06;5030626;28;20172;-44
2022/10/26 10:43:52;;;;;;;6.75;5.20;;;;;;;15.17;98.79;101469.53;5030401;28;20600;-43
2022/10/26 10:46:21;;;;;;;8.00;4.88;;;;;;;15.18;98.10;101470.44;5044938;28;20726;-42
2022/10/26 10:48:52;;;;;;;9.38;4.70;;;;;;;15.39;97.93;101479.31;5042487;28;20655;-45
2022/10/26 10:51:21;;;;;;;9.02;4.85;;;;;;;15.47;97.59;101469.03;5041095;28;20229;-45
2022/10/26 10:53:56;;;;;;;6.47;4.72;;;;;;;15.53;97.00;101471.44;5050196;28;20210;-44
2022/10/26 10:56:30;;;;;;;6.72;4.43;;;;;;;15.86;96.39;101465.34;5050296;28;20165;-44
2022/10/26 10:59:14;;;;;;;8.55;4.90;;;;;;;15.74;95.97;101464.16;5041650;28;20693;-44
2022/10/26 11:02:06;;;;;;;12.20;5.45;;;;;;;15.53;95.01;101465.19;5030417;28;20410;-45
2022/10/26 11:04:57;;;;;;;9.35;4.60;;;;;;;15.56;95.31;101471.28;4978651;28;20230;-46
2022/10/26 11:07:26;;;;;;;6.00;3.83;;;;;;;15.51;94.60;101467.06;5049251;28;20488;-45
2022/10/26 11:09:54;;;;;;;7.85;3.60;;;;;;;15.48;94.17;101462.69;5030019;28;20195;-46
2022/10/26 11:12:39;;;;;;;7.75;3.47;;;;;;;15.59;93.73;101464.84;5030301;28;20184;-43
2022/10/26 11:15:12;;;;;;;10.88;3.35;;;;;;;15.56;93.27;101467.72;5033848;28;20203;-45
2022/10/26 11:17:48;;;;;;;5.60;2.92;;;;;;;15.45;93.18;101469.09;5050212;28;20171;-43
2022/10/26 11:20:21;;;;;;;9.73;2.67;;;;;;;15.47;93.30;101478.97;5049774;28;20167;-44
2022/10/26 11:23:22;;;;;;;3.88;3.00;;;;;;;15.52;93.58;101483.19;5049003;28;20213;-46
2022/10/26 11:25:54;;;;;;;3.50;2.60;;;;;;;15.58;93.18;101480.19;5036458;28;20244;-44